• Join FlightAware (Why Join?)
  • Login
  • US Flag 
09:39PM EDT


 

Airport Tracker/Info


-or-


 

Live Flight TrackerFlight Track Log ✈ SWA1969 ✈ 25-Apr-2013 ✈ KMCI - KMDW

Flight Track Log - Related Links

Times and Time Zones

All times are in EDT time to prevent confusion due to time zone crossing. See the SWA1969 flight status page for this flight to view local times or setup timezone preferences in your user account.

Time Position Orientation Groundspeed Altitude Reporting Facility
EDT Latitude Longitude Course Direction KTS MPH feet Rate Location/Type
11:11AM 39.2833 -94.6500 90° East 170 196 2,900  Level Kansas City TRACON
11:13AM 39.2667 -94.5500 102° East 271 312 6,000 2,880 Climbing Kansas City TRACON
11:14AM 39.3311 -94.4722 43° Northeast 275 316 10,000 2,640 Climbing Kansas City Center
11:15AM 39.3997 -94.4181 31° Northeast 312 359 12,100 2,340 Climbing Kansas City Center
11:16AM 39.4775 -94.3583 31° Northeast 339 390 14,900 2,340 Climbing Kansas City Center
11:17AM 39.5758 -94.2789 32° Northeast 371 427 17,000 1,020 Climbing Kansas City Center
11:18AM 39.6647 -94.2094 31° Northeast 387 445 17,000 1,200 Level Kansas City Center
11:19AM 39.7678 -94.1258 32° Northeast 390 449 19,600 2,400 Climbing Kansas City Center
11:20AM 39.8528 -94.0506 34° Northeast 384 442 22,000 2,160 Climbing Kansas City Center
11:21AM 39.9456 -93.9703 34° Northeast 401 461 24,200 1,920 Climbing Kansas City Center
11:22AM 40.0303 -93.8642 44° Northeast 423 487 26,100 2,160 Climbing Kansas City Center
11:23AM 40.1217 -93.7133 52° Northeast 452 520 28,700 2,100 Climbing Kansas City Center
11:24AM 40.1497 -93.5469 78° East 472 543 30,500 1,080 Climbing Kansas City Center
11:25AM 40.1772 -93.3736 78° East 485 558 31,000 240 Climbing Kansas City Center
11:26AM 40.2058 -93.2000 78° East 492 566 31,000  Level Kansas City Center
11:27AM 40.2367 -92.9989 79° East 488 562 31,000  Level Kansas City Center
11:28AM 40.2633 -92.8289 78° East 492 566 31,000  Level Kansas City Center
11:29AM 40.2939 -92.6328 78° East 493 567 31,000  Level Kansas City Center
11:30AM 40.3197 -92.4653 79° East 490 564 31,000  Level Kansas City Center
11:31AM 40.3464 -92.2736 80° East 497 572 31,000  Level Kansas City Center
11:32AM 40.3714 -92.0986 79° East 493 567 31,000  Level Kansas City Center
11:33AM 40.3958 -91.9250 79° East 489 563 31,000  Level Kansas City Center
11:34AM 40.4208 -91.7492 79° East 492 566 31,000  Level Kansas City Center
11:35AM 40.4447 -91.5758 80° East 489 563 31,000  Level Chicago Center
11:36AM 40.4711 -91.3981 79° East 497 572 31,000  Level Chicago Center
11:37AM 40.4972 -91.2058 80° East 493 567 31,000  Level Chicago Center
11:38AM 40.5211 -91.0264 80° East 497 572 31,000 -240 Level Chicago Center
11:39AM 40.5450 -90.8478 80° East 496 571 30,600 -720 Descending Chicago Center
11:40AM 40.5686 -90.6686 80° East 499 574 29,600 -960 Descending Chicago Center
11:42AM 40.5908 -90.4897 81° East 498 573 28,700 -960 Descending Chicago Center
11:43AM 40.6142 -90.3128 80° East 494 568 27,700 -1,020 Descending Chicago Center
11:44AM 40.6381 -90.1231 81° East 483 556 26,600 -1,020 Descending Chicago Center
11:45AM 40.6600 -89.9528 80° East 476 548 25,600 -1,320 Descending Chicago Center
11:46AM 40.6808 -89.7861 81° East 467 537 23,900 -1,980 Descending Chicago Center
11:47AM 40.7533 -89.6244 59° Northeast 427 491 21,600 -2,100 Descending Chicago Center
11:48AM 40.8108 -89.4900 60° Northeast 414 476 19,600 -1,920 Descending Chicago Center
11:49AM 40.8658 -89.3625 60° Northeast 401 461 17,700 -1,200 Descending Chicago Center
11:50AM 40.9186 -89.2389 61° Northeast 387 445 17,100 -720 Descending Chicago Center
11:51AM 40.9703 -89.1175 61° Northeast 380 437 16,300 -1,020 Descending Chicago Center
11:52AM 41.0278 -88.9808 61° Northeast 369 425 15,100 -1,080 Descending Chicago Center
11:53AM 41.0775 -88.8631 61° Northeast 366 421 14,100 -1,020 Descending Chicago Center
11:54AM 41.1256 -88.7475 61° Northeast 360 414 13,100 -1,200 Descending Chicago Center
11:55AM 41.1728 -88.6333 61° Northeast 357 411 11,700 -1,380 Descending Chicago Center
11:56AM 41.2181 -88.5242 61° Northeast 343 395 10,300 -1,800 Descending Chicago Center
11:57AM 41.2967 -88.4614 31° Northeast 282 325 8,000 -1,920 Descending Chicago Center
11:58AM 41.3656 -88.4222 23° Northeast 272 313 6,400 -1,020 Descending Chicago Center
11:59AM 41.4281 -88.3764 29° Northeast 269 310 6,000 -360 Descending Chicago Center
12:00PM 41.4531 -88.2831 70° East 270 311 5,700 -540 Descending Chicago Center
12:01PM 41.4781 -88.1900 70° East 266 306 4,900 -420 Descending Chicago Center
12:02PM 41.5025 -88.0958 71° East 265 305 4,900  Level Chicago Center
12:03PM 41.5283 -88.0019 70° East 265 305 4,900  Level Chicago Center
12:04PM 41.5492 -87.9061 74° East 272 313 4,900  Level Chicago Center
12:05PM 41.5489 -87.7881 90° East 265 305 4,900  Level Chicago Center
12:06PM 41.5508 -87.6878 88° East 268 308 4,900 -480 Level Chicago Center
12:07PM 41.5894 -87.6211 52° Northeast 240 276 4,000 -1,020 Descending Chicago Center
12:08PM 41.6361 -87.5819 32° Northeast 228 262 2,900 -780 Descending Chicago Center
12:09PM 41.6808 -87.6069 337° Northwest 194 223 2,400 -240 Descending Chicago Center
12:10PM 41.7167 -87.6500 318° Northwest 161 185 2,500 -360 Climbing Chicago TRACON
12:11PM 41.7500 -87.7000 312° West 132 152 1,800 -780 Descending Chicago TRACON
12:12PM 41.7667 -87.7333 304° West 133 153 1,100 -780 Descending Chicago TRACON